Time;durP1;ratioP1;P1;durP2;ratioP2;P2;SDS_P1;SDS_P2;PMS_P1;PMS_P2;Temp;Humidity;BMP_temperature;BMP_pressure;BME280_temperature;BME280_humidity;BME280_pressure;Samples;Min_cycle;Max_cycle;Signal;HPM_P1;HPM_P2
2024/02/08 00:02:42;;;;;;;18.45;8.05;;;;;;;4.69;100.00;100296.81;4766218;30;20540;-65
2024/02/08 00:05:32;;;;;;;16.85;6.97;;;;;;;4.66;100.00;100294.59;4768867;30;20048;-64
2024/02/08 00:08:20;;;;;;;15.13;7.85;;;;;;;4.59;100.00;100299.31;4769958;30;20051;-65
2024/02/08 00:11:08;;;;;;;21.95;7.95;;;;;;;4.53;100.00;100307.56;4777442;30;20521;-65
2024/02/08 00:13:56;;;;;;;16.08;7.28;;;;;;;4.58;100.00;100308.47;4780732;30;20157;-64
2024/02/08 00:16:44;;;;;;;18.77;7.65;;;;;;;4.65;100.00;100311.84;4771811;30;20047;-65
2024/02/08 00:19:32;;;;;;;14.27;6.88;;;;;;;4.73;100.00;100307.13;4775507;30;20051;-64
2024/02/08 00:22:20;;;;;;;14.98;7.03;;;;;;;4.80;100.00;100308.59;4770425;30;20052;-64
2024/02/08 00:25:08;;;;;;;20.23;8.13;;;;;;;4.82;100.00;100293.00;4775416;30;20059;-66
2024/02/08 00:27:56;;;;;;;17.48;7.40;;;;;;;4.74;100.00;100292.56;4769171;30;20422;-64
2024/02/08 00:30:45;;;;;;;18.88;7.55;;;;;;;4.62;100.00;100298.84;4771829;30;20074;-65
2024/02/08 00:33:34;;;;;;;16.98;7.00;;;;;;;4.62;100.00;100308.84;4769441;30;20070;-64
2024/02/08 00:36:22;;;;;;;19.15;7.32;;;;;;;4.67;100.00;100308.91;4758200;30;20425;-65
2024/02/08 00:39:10;;;;;;;17.63;7.47;;;;;;;4.67;100.00;100304.34;4758495;30;20048;-64
2024/02/08 00:41:58;;;;;;;19.15;7.45;;;;;;;4.73;100.00;100307.13;4771442;30;20502;-64
2024/02/08 00:44:50;;;;;;;14.88;7.38;;;;;;;4.77;100.00;100311.81;4769813;30;20056;-65
2024/02/08 00:47:38;;;;;;;16.73;7.90;;;;;;;4.76;100.00;100307.44;4770543;30;20083;-66
2024/02/08 00:50:26;;;;;;;17.33;7.85;;;;;;;4.75;100.00;100311.22;4770247;30;20055;-64
2024/02/08 00:53:14;;;;;;;21.02;8.00;;;;;;;4.74;100.00;100308.75;4759685;30;20051;-64
2024/02/08 00:56:02;;;;;;;15.63;7.00;;;;;;;4.76;100.00;100306.63;4761004;30;20055;-64
2024/02/08 00:58:51;;;;;;;19.50;7.15;;;;;;;4.79;100.00;100314.28;4758698;30;20101;-65
2024/02/08 01:01:40;;;;;;;16.50;7.20;;;;;;;4.81;100.00;100315.66;4759554;30;20055;-66
2024/02/08 01:04:29;;;;;;;18.77;8.00;;;;;;;4.78;100.00;100307.22;4766990;30;20052;-65
2024/02/08 01:07:17;;;;;;;19.48;6.50;;;;;;;4.77;100.00;100302.91;4766454;30;20056;-66
2024/02/08 01:10:08;;;;;;;14.25;6.60;;;;;;;4.81;100.00;100295.94;4764520;30;20044;-65
2024/02/08 01:12:56;;;;;;;17.60;7.20;;;;;;;4.79;100.00;100298.06;4754101;30;20051;-65
2024/02/08 01:15:46;;;;;;;18.05;7.00;;;;;;;4.74;100.00;100297.97;4744823;30;20126;-66
2024/02/08 01:18:35;;;;;;;18.15;6.88;;;;;;;4.75;100.00;100294.22;4765088;30;20411;-65
2024/02/08 01:21:23;;;;;;;17.33;6.95;;;;;;;4.78;100.00;100282.94;4755763;30;20063;-65
2024/02/08 01:24:11;;;;;;;18.98;6.70;;;;;;;4.79;100.00;100284.59;4769319;30;20044;-66
2024/02/08 01:26:59;;;;;;;20.33;6.65;;;;;;;4.59;100.00;100275.03;4755042;30;20047;-65
2024/02/08 01:29:50;;;;;;;15.13;7.00;;;;;;;4.39;100.00;100277.34;4765966;30;20056;-65
2024/02/08 01:32:39;;;;;;;17.60;6.10;;;;;;;4.35;100.00;100286.97;4768476;30;20145;-65
2024/02/08 01:35:27;;;;;;;16.77;6.63;;;;;;;4.42;100.00;100290.34;4768914;30;20052;-65
2024/02/08 01:38:16;;;;;;;16.83;6.13;;;;;;;4.52;100.00;100290.53;4767428;30;20065;-65
2024/02/08 01:41:06;;;;;;;17.85;7.15;;;;;;;4.61;100.00;100289.09;4764823;30;20051;-65
2024/02/08 01:43:59;;;;;;;19.08;6.82;;;;;;;4.66;100.00;100270.31;4765416;30;20600;-64
2024/02/08 01:46:48;;;;;;;15.50;7.07;;;;;;;4.69;100.00;100264.44;4757952;29;20056;-65
2024/02/08 01:49:36;;;;;;;17.27;6.90;;;;;;;4.73;100.00;100261.25;4773565;30;20152;-65
2024/02/08 01:52:24;;;;;;;16.65;7.28;;;;;;;4.74;100.00;100271.81;4768358;30;20058;-64
2024/02/08 01:55:16;;;;;;;17.08;6.70;;;;;;;4.62;100.00;100265.66;4767621;30;20052;-65
2024/02/08 01:58:07;;;;;;;15.95;6.78;;;;;;;4.53;100.00;100270.63;4769639;30;20121;-64
2024/02/08 02:00:56;;;;;;;18.15;6.32;;;;;;;4.55;100.00;100273.91;4769391;29;20047;-66
2024/02/08 02:03:46;;;;;;;17.45;6.90;;;;;;;4.62;100.00;100274.56;4768796;29;20136;-65
2024/02/08 02:06:35;;;;;;;16.55;6.38;;;;;;;4.66;100.00;100272.19;4768399;30;20052;-64
2024/02/08 02:09:26;;;;;;;17.85;6.93;;;;;;;4.66;100.00;100275.69;4770910;30;20418;-64
2024/02/08 02:12:22;;;;;;;16.08;6.53;;;;;;;4.66;100.00;100281.09;4756197;30;20093;-66
2024/02/08 02:15:10;;;;;;;15.82;6.95;;;;;;;4.67;100.00;100282.75;4769443;30;20542;-65
2024/02/08 02:18:03;;;;;;;22.10;7.68;;;;;;;4.67;100.00;100290.84;4756824;30;20430;-65
2024/02/08 02:20:54;;;;;;;15.38;6.60;;;;;;;4.60;100.00;100290.19;4751257;30;20048;-64
2024/02/08 02:23:42;;;;;;;22.90;7.40;;;;;;;4.52;100.00;100277.06;4754787;30;20052;-66
2024/02/08 02:26:32;;;;;;;15.40;7.22;;;;;;;4.46;100.00;100269.94;4755717;30;20059;-65
2024/02/08 02:29:21;;;;;;;15.73;7.07;;;;;;;4.50;100.00;100260.31;4767616;30;20067;-65
2024/02/08 02:32:11;;;;;;;20.80;7.00;;;;;;;4.58;100.00;100268.00;4755987;30;20097;-67
2024/02/08 02:35:00;;;;;;;16.70;7.00;;;;;;;4.63;100.00;100243.81;4761660;30;20142;-67
2024/02/08 02:37:49;;;;;;;14.85;6.78;;;;;;;4.67;100.00;100247.66;4760022;30;20048;-65
2024/02/08 02:40:40;;;;;;;17.92;7.07;;;;;;;4.68;100.00;100252.00;4756442;30;20112;-66
2024/02/08 02:43:28;;;;;;;19.48;7.47;;;;;;;4.68;100.00;100249.28;4768024;30;20056;-66
2024/02/08 02:46:18;;;;;;;16.00;7.07;;;;;;;4.67;100.00;100244.97;4770314;30;20059;-65
2024/02/08 02:49:09;;;;;;;17.23;6.60;;;;;;;4.64;100.00;100239.22;4766474;30;20055;-66
2024/02/08 02:51:59;;;;;;;20.70;7.28;;;;;;;4.55;100.00;100236.13;4767968;30;20410;-64
2024/02/08 02:54:48;;;;;;;17.08;6.70;;;;;;;4.47;100.00;100234.66;4772525;30;20056;-66
2024/02/08 02:57:36;;;;;;;17.20;6.80;;;;;;;4.49;100.00;100229.81;4770962;30;20055;-66
2024/02/08 03:00:24;;;;;;;21.23;7.30;;;;;;;4.48;100.00;100232.75;4771118;30;20190;-66
2024/02/08 03:03:12;;;;;;;18.42;7.95;;;;;;;4.39;100.00;100231.50;4770909;30;20048;-65
2024/02/08 03:06:01;;;;;;;16.48;6.70;;;;;;;4.30;100.00;100222.97;4772414;30;20514;-64
2024/02/08 03:08:49;;;;;;;15.82;6.68;;;;;;;4.22;100.00;100221.50;4772524;30;20048;-65
2024/02/08 03:11:38;;;;;;;15.20;6.47;;;;;;;4.15;100.00;100215.41;4773606;30;20064;-64
2024/02/08 03:14:26;;;;;;;15.40;6.90;;;;;;;4.12;100.00;100218.59;4760538;30;20044;-65
2024/02/08 03:17:14;;;;;;;25.05;6.90;;;;;;;4.14;100.00;100219.19;4771741;30;20051;-65
2024/02/08 03:20:04;;;;;;;18.05;6.82;;;;;;;4.17;100.00;100228.66;4769970;30;20190;-67
2024/02/08 03:22:53;;;;;;;15.38;6.68;;;;;;;4.17;100.00;100217.88;4767996;30;20048;-65
2024/02/08 03:25:41;;;;;;;14.00;6.30;;;;;;;4.14;100.00;100219.19;4771714;30;20058;-65
2024/02/08 03:28:30;;;;;;;16.90;6.78;;;;;;;4.18;100.00;100211.41;4771298;30;20047;-65
2024/02/08 03:31:18;;;;;;;19.92;6.90;;;;;;;4.16;100.00;100210.84;4771395;30;20058;-64
2024/02/08 03:34:08;;;;;;;16.60;6.57;;;;;;;4.10;100.00;100201.84;4770171;30;20490;-65
2024/02/08 03:36:57;;;;;;;15.93;6.55;;;;;;;4.10;100.00;100199.16;4771265;30;20451;-64
2024/02/08 03:39:46;;;;;;;15.82;6.03;;;;;;;4.09;100.00;100194.00;4770793;30;20062;-65
2024/02/08 03:42:35;;;;;;;20.85;6.57;;;;;;;4.03;100.00;100201.16;4769716;30;20066;-66
2024/02/08 03:45:27;;;;;;;15.63;7.00;;;;;;;4.03;100.00;100210.06;4760535;30;20040;-64
2024/02/08 03:48:15;;;;;;;15.70;6.47;;;;;;;4.11;100.00;100211.56;4768619;29;20083;-67
2024/02/08 03:51:04;;;;;;;14.57;6.35;;;;;;;4.23;100.00;100206.97;4760442;30;20044;-64
2024/02/08 03:53:52;;;;;;;14.38;6.13;;;;;;;4.28;100.00;100203.50;4757234;30;20086;-65
2024/02/08 03:56:40;;;;;;;16.85;6.25;;;;;;;4.26;100.00;100198.38;4771494;30;20140;-65
2024/02/08 03:59:28;;;;;;;18.52;6.10;;;;;;;4.33;100.00;100194.69;4770876;30;20184;-66
2024/02/08 04:02:21;;;;;;;20.10;6.53;;;;;;;4.30;100.00;100196.00;4770202;30;20522;-65
2024/02/08 04:05:19;;;;;;;18.85;6.40;;;;;;;4.21;100.00;100192.91;4771194;30;20138;-65
2024/02/08 04:08:52;;;;;;;19.02;7.15;;;;;;;4.09;100.00;100177.81;4759671;30;20063;-66
2024/02/08 04:55:04;;;;;;;23.85;7.93;;;;;;;4.20;100.00;100131.94;4763803;30;20040;-66
2024/02/08 04:57:52;;;;;;;19.40;7.45;;;;;;;4.20;100.00;100145.41;4767516;30;20051;-63
2024/02/08 05:00:53;;;;;;;18.38;6.97;;;;;;;4.21;100.00;100138.97;4767796;30;20500;-63
2024/02/08 05:03:42;;;;;;;20.00;7.45;;;;;;;4.22;100.00;100129.81;4770746;30;20060;-67
2024/02/08 05:06:30;;;;;;;17.65;7.05;;;;;;;4.23;100.00;100136.84;4766037;30;20052;-66
2024/02/08 05:09:19;;;;;;;18.58;7.38;;;;;;;4.19;100.00;100133.00;4758126;30;20167;-65
2024/02/08 05:12:10;;;;;;;17.70;8.10;;;;;;;4.20;100.00;100139.22;4763818;30;20066;-64
2024/02/08 05:14:59;;;;;;;18.05;7.60;;;;;;;4.12;100.00;100137.72;4769379;30;20509;-65
2024/02/08 05:17:47;;;;;;;18.80;7.25;;;;;;;4.08;100.00;100136.56;4755926;30;20130;-65
2024/02/08 05:20:36;;;;;;;17.15;7.63;;;;;;;4.08;100.00;100133.88;4769423;30;20055;-65
2024/02/08 05:23:27;;;;;;;18.63;7.28;;;;;;;4.11;100.00;100137.97;4764266;30;20506;-64
2024/02/08 05:26:18;;;;;;;19.38;7.10;;;;;;;4.17;100.00;100135.13;4769045;30;20482;-66
2024/02/08 05:29:08;;;;;;;19.42;7.68;;;;;;;4.16;100.00;100144.28;4769930;30;20054;-66
2024/02/08 05:31:58;;;;;;;19.58;7.93;;;;;;;4.04;100.00;100148.88;4768737;30;20134;-62
2024/02/08 05:34:46;;;;;;;21.92;8.10;;;;;;;3.91;100.00;100150.00;4769363;29;20071;-64
2024/02/08 05:37:34;;;;;;;21.08;8.52;;;;;;;3.84;100.00;100154.72;4770042;30;20051;-63
2024/02/08 05:40:22;;;;;;;23.35;8.50;;;;;;;3.78;100.00;100151.13;4756948;30;20079;-65
2024/02/08 05:43:12;;;;;;;21.08;8.45;;;;;;;3.69;100.00;100147.16;4755167;30;20052;-66
2024/02/08 05:46:01;;;;;;;20.88;7.85;;;;;;;3.63;100.00;100154.31;4744420;30;20048;-65
2024/02/08 05:48:51;;;;;;;23.58;7.85;;;;;;;3.60;100.00;100149.41;4761319;30;20080;-65
2024/02/08 05:51:51;;;;;;;21.30;8.65;;;;;;;3.61;100.00;100147.53;4756233;30;20205;-65
2024/02/08 05:54:45;;;;;;;19.58;8.02;;;;;;;3.66;100.00;100142.25;4768462;30;20055;-65
2024/02/08 05:57:35;;;;;;;19.25;8.23;;;;;;;3.76;100.00;100131.66;4761543;30;20418;-64
2024/02/08 06:00:32;;;;;;;21.75;8.20;;;;;;;3.82;100.00;100130.72;4770468;30;20149;-65
2024/02/08 06:03:33;;;;;;;18.50;7.75;;;;;;;3.83;100.00;100118.88;4755603;30;20494;-65
2024/02/08 06:06:34;;;;;;;20.77;8.80;;;;;;;3.82;100.00;100114.56;4768413;30;20130;-66
2024/02/08 06:12:42;;;;;;;21.48;8.38;;;;;;;3.81;100.00;100107.50;4766231;30;20090;-66
2024/02/08 06:15:33;;;;;;;22.98;8.80;;;;;;;3.84;100.00;100109.72;4756713;30;20059;-65
2024/02/08 06:18:30;;;;;;;21.25;8.40;;;;;;;3.84;100.00;100104.31;4754786;30;20055;-66
2024/02/08 06:21:25;;;;;;;22.90;8.65;;;;;;;3.92;100.00;100113.09;4768387;30;20055;-65
2024/02/08 06:27:13;;;;;;;21.55;8.88;;;;;;;3.91;100.00;100111.47;4766269;30;20058;-64
2024/02/08 06:30:08;;;;;;;22.55;8.30;;;;;;;3.83;100.00;100100.00;4762494;29;20074;-65
2024/02/08 06:33:13;;;;;;;23.55;8.73;;;;;;;3.84;100.00;100095.44;4768464;30;20125;-65
2024/02/08 06:36:07;;;;;;;20.90;8.75;;;;;;;3.74;100.00;100087.97;4767710;30;20055;-65
2024/02/08 06:38:56;;;;;;;23.10;9.35;;;;;;;3.72;100.00;100100.06;4769980;30;20052;-65
2024/02/08 06:41:53;;;;;;;17.60;8.30;;;;;;;3.71;100.00;100112.72;4596576;30;10000519;-66
2024/02/08 07:37:29;;;;;;;22.35;10.48;;;;;;;3.77;100.00;100044.38;4771756;30;20055;-67
2024/02/08 07:40:23;;;;;;;23.17;10.48;;;;;;;3.77;100.00;100036.28;4772197;30;20051;-66
2024/02/08 07:46:16;;;;;;;27.88;10.95;;;;;;;3.76;100.00;100006.91;4785345;30;20067;-66
2024/02/08 07:49:04;;;;;;;19.50;9.10;;;;;;;3.71;100.00;100002.25;4770808;30;20101;-65
2024/02/08 07:51:58;;;;;;;24.60;11.38;;;;;;;3.77;100.00;100014.75;4770985;30;20433;-65
2024/02/08 07:54:50;;;;;;;28.08;10.20;;;;;;;3.86;100.00;100006.28;4756551;30;20048;-67
2024/02/08 07:57:42;;;;;;;24.17;10.48;;;;;;;3.92;100.00;99999.91;4762838;30;20097;-67
2024/02/08 08:03:35;;;;;;;20.90;9.45;;;;;;;4.00;100.00;99992.22;4772285;30;20071;-66
2024/02/08 08:06:23;;;;;;;23.48;10.02;;;;;;;4.02;100.00;99995.50;4766423;30;20418;-66
2024/02/08 08:09:21;;;;;;;23.70;9.68;;;;;;;3.94;100.00;99987.00;4766923;30;20048;-66
2024/02/08 08:12:10;;;;;;;23.00;9.75;;;;;;;3.91;100.00;99990.19;4759096;30;20048;-67
2024/02/08 08:17:59;;;;;;;26.55;10.88;;;;;;;3.91;100.00;99982.09;4761133;29;20059;-66
2024/02/08 08:20:57;;;;;;;27.13;10.52;;;;;;;3.92;100.00;99983.72;4759101;30;20255;-67
2024/02/08 08:23:59;;;;;;;27.63;10.98;;;;;;;3.90;100.00;99969.72;4768628;30;20083;-66
2024/02/08 08:26:51;;;;;;;23.67;10.73;;;;;;;3.86;100.00;99973.94;4754996;30;20056;-66
2024/02/08 08:29:45;;;;;;;24.67;10.05;;;;;;;3.89;100.00;99957.28;4754896;30;20522;-66
2024/02/08 08:41:18;;;;;;;22.33;10.05;;;;;;;3.92;100.00;99936.06;4759834;30;20056;-65
2024/02/08 08:44:06;;;;;;;27.60;11.02;;;;;;;3.98;100.00;99924.28;4755757;30;20060;-65
2024/02/08 08:47:00;;;;;;;28.38;11.05;;;;;;;4.04;100.00;99925.16;4762347;30;20090;-61
2024/02/08 08:49:50;;;;;;;25.30;11.55;;;;;;;4.08;100.00;99920.91;4782269;30;20197;-65
2024/02/08 08:52:47;;;;;;;27.10;11.13;;;;;;;4.08;100.00;99922.81;4778899;30;20052;-67
2024/02/08 08:55:43;;;;;;;32.03;12.57;;;;;;;4.06;100.00;99931.13;4769930;30;20593;-67
2024/02/08 08:58:43;;;;;;;26.33;11.50;;;;;;;4.03;100.00;99929.75;4758205;30;20529;-67
2024/02/08 09:01:40;;;;;;;23.58;10.63;;;;;;;4.02;100.00;99928.13;4770911;30;20139;-66
2024/02/08 09:04:35;;;;;;;27.92;11.75;;;;;;;4.02;100.00;99924.63;4759852;30;20056;-66
2024/02/08 09:07:30;;;;;;;27.38;11.40;;;;;;;4.01;100.00;99925.66;4769637;30;20124;-67
2024/02/08 09:10:18;;;;;;;26.40;11.68;;;;;;;4.02;100.00;99925.44;4758605;30;20048;-66
2024/02/08 09:13:07;;;;;;;30.17;12.60;;;;;;;4.04;100.00;99917.06;4771718;30;20056;-67
2024/02/08 09:16:14;;;;;;;27.55;13.25;;;;;;;4.03;100.00;99910.88;4753988;30;20055;-66
2024/02/08 09:21:52;;;;;;;30.27;13.30;;;;;;;4.03;100.00;99896.59;4753410;30;20048;-66
2024/02/08 09:24:44;;;;;;;26.77;12.50;;;;;;;4.04;100.00;99898.22;4762582;30;20059;-65
2024/02/08 09:27:34;;;;;;;22.48;8.63;;;;;;;4.17;100.00;99891.66;4770286;30;20054;-64
2024/02/08 09:30:38;;;;;;;26.98;11.52;;;;;;;4.23;100.00;99886.09;4758507;30;20048;-65
2024/02/08 09:33:44;;;;;;;25.60;12.70;;;;;;;4.15;100.00;99877.63;4770858;30;20080;-66
2024/02/08 09:36:34;;;;;;;26.42;13.20;;;;;;;4.02;100.00;99868.00;4753152;30;20075;-67
2024/02/08 09:39:48;;;;;;;26.23;12.38;;;;;;;4.03;100.00;99861.53;4752622;30;20048;-65
2024/02/08 09:42:37;;;;;;;30.35;13.18;;;;;;;4.08;100.00;99858.91;4761844;30;20040;-66
2024/02/08 09:48:36;;;;;;;25.95;12.25;;;;;;;4.07;100.00;99843.81;4765940;30;20048;-66
2024/02/08 09:51:25;;;;;;;25.48;12.18;;;;;;;4.05;100.00;99843.25;4752775;30;20048;-65
2024/02/08 09:54:18;;;;;;;24.98;12.10;;;;;;;4.03;100.00;99845.38;4771226;29;20048;-67
2024/02/08 09:57:20;;;;;;;26.30;12.27;;;;;;;4.04;100.00;99837.06;4770039;30;20091;-67
2024/02/08 10:00:34;;;;;;;24.15;10.93;;;;;;;4.09;100.00;99813.91;4770311;30;20410;-67
2024/02/08 10:03:31;;;;;;;31.00;12.18;;;;;;;4.06;100.00;99801.75;4770775;30;20047;-66
2024/02/08 10:06:38;;;;;;;22.67;11.55;;;;;;;3.99;100.00;99793.88;4769539;30;20051;-66
2024/02/08 10:12:50;;;;;;;27.23;11.48;;;;;;;3.93;100.00;99788.66;4769705;30;20051;-67
2024/02/08 10:15:45;;;;;;;26.48;11.05;;;;;;;3.98;100.00;99788.72;4770196;30;20083;-67
2024/02/08 10:18:38;;;;;;;25.30;11.68;;;;;;;3.98;100.00;99796.81;4775856;30;20455;-66
2024/02/08 10:21:29;;;;;;;21.75;11.52;;;;;;;4.00;100.00;99786.59;4787318;30;20059;-67
2024/02/08 10:27:36;;;;;;;24.20;10.40;;;;;;;4.01;100.00;99745.88;4773949;30;20063;-68
2024/02/08 10:30:25;;;;;;;24.25;11.27;;;;;;;4.02;100.00;99741.34;4786195;30;20052;-70
2024/02/08 10:33:14;;;;;;;23.17;10.85;;;;;;;4.04;100.00;99736.47;4771426;30;20098;-68
2024/02/08 10:36:15;;;;;;;26.58;12.00;;;;;;;3.99;100.00;99725.66;4770667;30;20043;-69
2024/02/08 10:39:07;;;;;;;27.10;10.50;;;;;;;3.99;100.00;99734.56;4783616;29;20091;-66
2024/02/08 10:41:58;;;;;;;24.20;11.25;;;;;;;4.01;100.00;99748.59;4769569;30;20056;-67
2024/02/08 10:44:52;;;;;;;23.95;10.57;;;;;;;4.08;100.00;99745.72;4756538;30;20052;-66
2024/02/08 10:47:40;;;;;;;24.67;10.70;;;;;;;4.01;100.00;99755.88;4769815;30;20406;-67
2024/02/08 10:50:31;;;;;;;28.88;11.68;;;;;;;4.03;100.00;99759.13;4770950;30;20460;-68
2024/02/08 10:53:43;;;;;;;25.75;12.18;;;;;;;4.01;100.00;99762.06;4772471;30;20055;-66
2024/02/08 10:56:40;;;;;;;25.27;11.65;;;;;;;3.94;100.00;99737.19;4771968;30;20044;-68
2024/02/08 10:59:47;;;;;;;22.85;11.32;;;;;;;3.91;100.00;99708.06;4770479;29;20048;-67
2024/02/08 11:02:40;;;;;;;20.92;9.32;;;;;;;4.01;100.00;99689.28;4757025;30;20578;-67
2024/02/08 11:08:24;;;;;;;21.38;10.68;;;;;;;4.12;100.00;99700.22;4767121;30;20060;-67
2024/02/08 11:11:20;;;;;;;23.23;10.50;;;;;;;4.05;100.00;99714.69;4772218;30;20527;-68
2024/02/08 11:14:09;;;;;;;22.20;10.90;;;;;;;4.10;100.00;99716.63;4109064;30;10000654;-67
2024/02/08 11:17:03;;;;;;;24.17;11.20;;;;;;;4.09;100.00;99714.16;4757074;30;20201;-68
2024/02/08 11:19:56;;;;;;;21.25;10.77;;;;;;;4.03;100.00;99703.34;4767039;30;20060;-68
2024/02/08 11:22:57;;;;;;;20.60;10.43;;;;;;;4.06;100.00;99702.00;4757496;30;20148;-67
2024/02/08 11:25:45;;;;;;;23.05;10.45;;;;;;;4.11;100.00;99703.94;4738753;30;20486;-68
2024/02/08 11:28:44;;;;;;;20.35;10.27;;;;;;;4.17;100.00;99706.47;4751708;30;20056;-68
2024/02/08 11:31:41;;;;;;;22.05;10.23;;;;;;;4.18;100.00;99697.28;4750762;30;20075;-68
2024/02/08 11:34:44;;;;;;;27.50;12.40;;;;;;;4.17;100.00;99702.97;4745124;30;20094;-68
2024/02/08 11:37:37;;;;;;;22.95;11.32;;;;;;;4.14;100.00;99693.50;4770107;29;20051;-68
2024/02/08 11:40:29;;;;;;;23.60;10.35;;;;;;;4.14;100.00;99695.38;4756819;30;20060;-68
2024/02/08 11:43:25;;;;;;;24.25;10.73;;;;;;;4.12;100.00;99687.53;4755837;30;20052;-68
2024/02/08 11:46:21;;;;;;;22.83;11.10;;;;;;;4.11;100.00;99683.19;4768858;30;20052;-68
2024/02/08 11:49:14;;;;;;;24.27;11.45;;;;;;;4.09;100.00;99669.19;4768604;30;20051;-68
2024/02/08 11:52:07;;;;;;;21.10;9.93;;;;;;;4.12;100.00;99635.53;4731584;30;20209;-68
2024/02/08 11:55:05;;;;;;;21.05;11.13;;;;;;;4.21;100.00;99634.81;4768184;30;20063;-67
2024/02/08 11:57:56;;;;;;;20.52;10.55;;;;;;;4.19;100.00;99622.66;4768790;30;20474;-67
2024/02/08 12:00:48;;;;;;;21.25;9.95;;;;;;;4.18;100.00;99605.63;4766738;30;20514;-68
2024/02/08 12:03:41;;;;;;;20.17;10.55;;;;;;;4.14;100.00;99604.53;4768412;30;20051;-68
2024/02/08 12:06:33;;;;;;;23.15;11.52;;;;;;;4.12;100.00;99609.38;4756923;29;20494;-68
2024/02/08 12:09:31;;;;;;;24.13;11.95;;;;;;;4.14;100.00;99603.72;4742747;30;20047;-67
2024/02/08 12:12:24;;;;;;;22.33;10.82;;;;;;;4.14;100.00;99599.16;4759144;30;20510;-68
2024/02/08 12:15:12;;;;;;;17.95;9.30;;;;;;;4.18;100.00;99600.25;4771940;30;20056;-67
2024/02/08 12:18:06;;;;;;;18.98;10.48;;;;;;;4.22;100.00;99585.19;4758625;30;20129;-67
2024/02/08 12:20:56;;;;;;;25.88;11.90;;;;;;;4.22;100.00;99577.09;4771481;30;20059;-68
2024/02/08 12:23:53;;;;;;;23.90;12.18;;;;;;;4.23;100.00;99567.97;4758747;30;20421;-67
2024/02/08 12:26:41;;;;;;;23.00;11.32;;;;;;;4.27;100.00;99558.28;4769038;29;20056;-68
2024/02/08 12:29:29;;;;;;;23.67;11.25;;;;;;;4.29;100.00;99562.59;4752700;30;20419;-67
2024/02/08 12:32:18;;;;;;;23.73;12.27;;;;;;;4.23;100.00;99550.94;4762803;30;20175;-67
2024/02/08 12:35:12;;;;;;;24.38;13.07;;;;;;;4.23;100.00;99549.09;4770536;29;20446;-67
2024/02/08 12:38:03;;;;;;;27.13;13.25;;;;;;;4.20;100.00;99556.88;4772137;29;20040;-67
2024/02/08 12:40:51;;;;;;;22.17;11.63;;;;;;;4.19;100.00;99547.97;4758905;30;20052;-66
2024/02/08 12:43:42;;;;;;;24.23;12.20;;;;;;;4.26;100.00;99536.97;4771058;30;20373;-67
2024/02/08 12:46:31;;;;;;;24.20;12.43;;;;;;;4.30;100.00;99537.25;4760743;30;20051;-67
2024/02/08 12:49:19;;;;;;;20.55;11.10;;;;;;;4.30;100.00;99526.47;4775494;30;20145;-65
2024/02/08 12:52:09;;;;;;;22.67;12.15;;;;;;;4.27;100.00;99509.75;4784788;30;20060;-64
2024/02/08 12:55:00;;;;;;;19.80;12.32;;;;;;;4.20;100.00;99511.03;4778782;29;20130;-65
2024/02/08 12:58:02;;;;;;;21.10;11.75;;;;;;;4.18;100.00;99513.16;4775540;30;20119;-65
2024/02/08 13:00:57;;;;;;;22.30;12.15;;;;;;;4.26;100.00;99521.59;4786342;30;20058;-66
2024/02/08 13:03:46;;;;;;;18.48;10.90;;;;;;;4.30;100.00;99524.59;4773409;30;20071;-66
2024/02/08 13:06:34;;;;;;;19.40;11.05;;;;;;;4.21;100.00;99508.09;4773526;30;20409;-67
2024/02/08 13:09:25;;;;;;;20.13;11.55;;;;;;;4.16;100.00;99477.56;4773406;30;20051;-67
2024/02/08 13:12:19;;;;;;;19.42;10.73;;;;;;;4.13;100.00;99468.13;4765568;30;20048;-67
2024/02/08 13:15:07;;;;;;;18.92;10.43;;;;;;;4.16;100.00;99462.22;4766074;30;20040;-67
2024/02/08 13:17:56;;;;;;;16.88;9.55;;;;;;;4.17;100.00;99455.75;4771037;30;20139;-68
2024/02/08 13:20:45;;;;;;;16.85;9.88;;;;;;;4.22;100.00;99454.97;4770672;30;20051;-68
2024/02/08 13:23:34;;;;;;;18.75;10.30;;;;;;;4.11;100.00;99459.47;4770837;30;20051;-67
2024/02/08 13:26:22;;;;;;;19.58;10.65;;;;;;;4.15;100.00;99454.38;4766283;30;20056;-66
2024/02/08 13:29:26;;;;;;;19.55;10.48;;;;;;;4.19;100.00;99444.72;4770064;30;20048;-67
2024/02/08 13:32:16;;;;;;;18.98;9.13;;;;;;;4.20;100.00;99428.28;4770685;30;20115;-67
2024/02/08 13:35:04;;;;;;;16.73;9.18;;;;;;;4.16;100.00;99424.50;4769741;30;20139;-67
2024/02/08 13:37:57;;;;;;;17.58;9.18;;;;;;;4.12;100.00;99412.59;4756923;30;20074;-67
2024/02/08 13:40:50;;;;;;;17.50;9.52;;;;;;;4.17;100.00;99406.44;4768639;30;20063;-67
2024/02/08 13:43:40;;;;;;;17.83;8.98;;;;;;;4.20;100.00;99398.63;4769591;30;20051;-67
2024/02/08 13:46:30;;;;;;;18.50;10.05;;;;;;;4.23;100.00;99397.28;4770132;30;20043;-67
2024/02/08 13:49:24;;;;;;;18.13;9.10;;;;;;;4.26;100.00;99380.59;4766328;30;20054;-67
2024/02/08 13:52:14;;;;;;;13.57;8.38;;;;;;;4.27;100.00;99382.22;4769634;30;20062;-67
2024/02/08 13:55:07;;;;;;;13.63;8.07;;;;;;;4.24;100.00;99367.38;4769396;30;20590;-66
2024/02/08 13:57:59;;;;;;;14.02;8.93;;;;;;;4.21;100.00;99362.50;4757869;30;20051;-65
2024/02/08 14:00:47;;;;;;;15.82;9.15;;;;;;;4.24;100.00;99364.69;4761665;30;20417;-66
2024/02/08 14:03:36;;;;;;;14.35;8.45;;;;;;;4.26;100.00;99357.16;4757439;30;20050;-67
2024/02/08 14:06:25;;;;;;;13.63;7.93;;;;;;;4.28;100.00;99343.38;4769216;30;20406;-68
2024/02/08 14:09:23;;;;;;;16.25;8.43;;;;;;;4.22;100.00;99321.00;4744028;30;20051;-68
2024/02/08 14:12:12;;;;;;;14.32;8.57;;;;;;;4.18;100.00;99309.09;4765416;30;20059;-67
2024/02/08 14:15:06;;;;;;;14.88;8.27;;;;;;;4.22;100.00;99299.44;4758134;30;20058;-68
2024/02/08 14:17:54;;;;;;;15.13;7.88;;;;;;;4.26;100.00;99289.75;4771165;30;20052;-65
2024/02/08 14:20:52;;;;;;;13.75;7.95;;;;;;;4.29;100.00;99272.22;4769491;30;20132;-68
2024/02/08 14:23:44;;;;;;;11.88;7.93;;;;;;;4.30;100.00;99273.84;4737259;30;20506;-67
2024/02/08 14:26:43;;;;;;;12.57;8.23;;;;;;;4.24;100.00;99259.53;4739847;30;20071;-68
2024/02/08 14:29:35;;;;;;;14.30;7.97;;;;;;;4.17;100.00;99258.19;4752453;30;20044;-68
2024/02/08 14:32:24;;;;;;;13.43;8.48;;;;;;;4.10;100.00;99255.72;4770577;30;20062;-68
2024/02/08 14:35:23;;;;;;;14.27;8.48;;;;;;;4.14;100.00;99247.94;4769355;30;20374;-68
2024/02/08 14:38:14;;;;;;;15.13;8.57;;;;;;;4.12;100.00;99245.50;4757369;30;20047;-69
2024/02/08 14:41:04;;;;;;;13.85;8.00;;;;;;;4.12;100.00;99242.00;4755601;30;20575;-68
2024/02/08 14:44:05;;;;;;;11.85;7.63;;;;;;;4.09;100.00;99231.72;4768148;30;20136;-67
2024/02/08 14:46:56;;;;;;;11.80;8.48;;;;;;;4.10;100.00;99239.53;4758006;30;20044;-69
2024/02/08 14:49:59;;;;;;;15.38;8.75;;;;;;;4.13;100.00;99230.13;4764372;30;20052;-68
2024/02/08 14:52:51;;;;;;;12.90;7.97;;;;;;;4.09;100.00;99219.06;4107749;30;10021518;-68
2024/02/08 14:55:45;;;;;;;12.30;7.50;;;;;;;4.14;100.00;99215.59;4758566;30;20075;-68
2024/02/08 14:58:33;;;;;;;11.20;7.25;;;;;;;4.21;100.00;99206.16;4770439;30;20147;-68
2024/02/08 15:01:39;;;;;;;10.95;7.22;;;;;;;4.26;100.00;99200.78;4757141;30;20126;-68
2024/02/08 15:04:30;;;;;;;13.05;6.97;;;;;;;4.25;100.00;99193.75;4769558;30;20087;-68
2024/02/08 15:07:47;;;;;;;12.13;6.97;;;;;;;4.23;100.00;99187.84;4770739;30;20073;-69
2024/02/08 15:10:43;;;;;;;10.48;7.22;;;;;;;4.08;100.00;99176.22;4767981;30;20060;-68
2024/02/08 15:13:49;;;;;;;13.05;7.30;;;;;;;4.10;100.00;99165.97;4762245;30;20051;-68
2024/02/08 15:16:37;;;;;;;10.63;6.72;;;;;;;4.13;100.00;99166.22;4770037;30;20059;-70
2024/02/08 15:19:26;;;;;;;10.57;6.78;;;;;;;4.16;100.00;99171.13;4757620;30;20059;-72
2024/02/08 15:22:46;;;;;;;10.07;6.40;;;;;;;4.21;100.00;99171.13;4769884;30;20055;-73
2024/02/08 15:25:34;;;;;;;10.70;6.65;;;;;;;4.17;100.00;99167.34;4756517;30;20059;-72
2024/02/08 15:28:26;;;;;;;9.95;6.88;;;;;;;4.14;100.00;99157.09;4775783;30;20063;-73
2024/02/08 15:34:39;;;;;;;10.35;6.20;;;;;;;4.15;100.00;99156.00;4768870;30;20091;-73